Time;durP1;ratioP1;P1;durP2;ratioP2;P2;SDS_P1;SDS_P2;PMS_P1;PMS_P2;Temp;Humidity;BMP_temperature;BMP_pressure;BME280_temperature;BME280_humidity;BME280_pressure;Samples;Min_cycle;Max_cycle;Signal;HPM_P1;HPM_P2
2021/04/24 00:00:28;;;;;;;;;;;4.10;90.70;;;;;;5111538;28;20010;-72
2021/04/24 00:02:54;;;;;;;;;;;4.10;90.80;;;;;;5104500;28;19909;-72
2021/04/24 00:05:28;;;;;;;;;;;4.10;90.90;;;;;;5087981;28;19911;-72
2021/04/24 00:07:58;;;;;;;;;;;4.10;91.00;;;;;;5089901;28;20385;-72
2021/04/24 00:10:24;;;;;;;;;;;4.00;91.10;;;;;;5090945;28;20277;-73
2021/04/24 00:12:49;;;;;;;;;;;4.00;91.10;;;;;;5090524;28;19908;-73
2021/04/24 00:15:15;;;;;;;;;;;4.00;91.20;;;;;;5090967;28;19915;-72
2021/04/24 00:17:41;;;;;;;;;;;4.00;91.30;;;;;;5088406;28;19930;-71
2021/04/24 00:20:08;;;;;;;;;;;3.90;91.40;;;;;;5090841;28;19912;-72
2021/04/24 00:22:33;;;;;;;;;;;3.90;91.50;;;;;;5090959;28;19938;-72
2021/04/24 00:24:59;;;;;;;;;;;3.90;91.70;;;;;;5090819;28;19939;-72
2021/04/24 00:27:25;;;;;;;;;;;3.80;91.90;;;;;;5089661;28;19915;-72
2021/04/24 00:29:50;;;;;;;;;;;3.70;92.00;;;;;;5090664;28;19908;-72
2021/04/24 00:32:16;;;;;;;;;;;3.70;92.10;;;;;;5090602;28;19912;-73
2021/04/24 00:34:41;;;;;;;;;;;3.60;92.30;;;;;;5084227;28;19915;-72
2021/04/24 00:37:07;;;;;;;;;;;3.60;92.40;;;;;;5089567;28;19920;-72
2021/04/24 00:39:32;;;;;;;;;;;3.60;92.60;;;;;;5090497;28;19958;-72
2021/04/24 00:41:58;;;;;;;;;;;3.60;92.70;;;;;;5092592;28;20331;-72
2021/04/24 00:44:24;;;;;;;;;;;3.50;92.70;;;;;;5094414;28;20098;-72
2021/04/24 00:46:49;;;;;;;;;;;3.50;92.80;;;;;;5093480;28;20156;-72
2021/04/24 00:49:15;;;;;;;;;;;3.50;92.80;;;;;;5092992;28;19908;-72
2021/04/24 00:51:40;;;;;;;;;;;3.50;92.90;;;;;;5094655;28;19912;-73
2021/04/24 00:54:06;;;;;;;;;;;3.50;92.90;;;;;;5094077;28;20351;-72
2021/04/24 00:56:32;;;;;;;;;;;3.50;93.00;;;;;;5092755;28;19919;-72
2021/04/24 00:58:58;;;;;;;;;;;3.50;93.10;;;;;;5092685;28;20006;-72
2021/04/24 01:01:23;;;;;;;;;;;3.50;93.30;;;;;;5094486;28;19944;-72
2021/04/24 01:03:49;;;;;;;;;;;3.40;93.40;;;;;;5087590;28;20391;-72
2021/04/24 01:06:14;;;;;;;;;;;3.40;93.50;;;;;;5092886;28;19934;-72
2021/04/24 01:08:40;;;;;;;;;;;3.40;93.70;;;;;;5093912;28;19915;-72
2021/04/24 01:11:06;;;;;;;;;;;3.30;93.80;;;;;;5093542;28;19912;-72
2021/04/24 01:13:31;;;;;;;;;;;3.30;93.90;;;;;;5094089;28;19961;-72
2021/04/24 01:15:57;;;;;;;;;;;3.20;94.10;;;;;;5092741;28;19915;-73
2021/04/24 01:18:22;;;;;;;;;;;3.20;94.30;;;;;;5093518;28;19965;-72
2021/04/24 01:20:49;;;;;;;;;;;3.10;94.50;;;;;;5094117;28;19912;-71
2021/04/24 01:23:14;;;;;;;;;;;3.10;94.70;;;;;;5093544;28;19908;-72
2021/04/24 01:25:41;;;;;;;;;;;3.10;94.90;;;;;;5088359;28;19995;-72
2021/04/24 01:28:07;;;;;;;;;;;3.00;95.10;;;;;;5093311;28;19916;-72
2021/04/24 01:30:40;;;;;;;;;;;3.00;95.20;;;;;;5093507;28;19908;-71
2021/04/24 01:33:08;;;;;;;;;;;3.00;95.40;;;;;;5088408;28;19935;-72
2021/04/24 01:35:34;;;;;;;;;;;3.00;95.50;;;;;;5090640;28;19921;-72
2021/04/24 01:38:00;;;;;;;;;;;3.00;95.60;;;;;;5092941;28;19916;-72
2021/04/24 01:40:26;;;;;;;;;;;3.00;95.70;;;;;;5093188;28;19970;-72
2021/04/24 01:42:52;;;;;;;;;;;3.00;95.70;;;;;;5093048;28;19915;-73
2021/04/24 01:45:19;;;;;;;;;;;3.00;95.80;;;;;;5093332;28;20285;-72
2021/04/24 01:47:45;;;;;;;;;;;2.90;96.00;;;;;;5091866;28;19999;-72
2021/04/24 01:50:12;;;;;;;;;;;2.90;96.10;;;;;;5093265;28;19908;-72
2021/04/24 01:52:37;;;;;;;;;;;2.90;96.20;;;;;;5092604;28;19923;-72
2021/04/24 01:55:07;;;;;;;;;;;2.90;96.30;;;;;;5093020;28;19908;-72
2021/04/24 01:57:33;;;;;;;;;;;2.90;96.40;;;;;;5091686;28;19909;-72
2021/04/24 01:59:59;;;;;;;;;;;2.80;96.40;;;;;;5092780;28;19912;-72
2021/04/24 02:02:24;;;;;;;;;;;2.80;96.60;;;;;;5091564;28;19957;-72
2021/04/24 02:04:50;;;;;;;;;;;2.80;96.80;;;;;;5085136;28;20366;-72
2021/04/24 02:07:16;;;;;;;;;;;2.70;96.90;;;;;;5096656;28;20300;-73
2021/04/24 02:09:42;;;;;;;;;;;2.70;97.00;;;;;;5113277;28;19994;-72
2021/04/24 02:12:08;;;;;;;;;;;2.60;97.20;;;;;;5112777;28;19937;-71
2021/04/24 02:14:41;;;;;;;;;;;2.60;97.40;;;;;;5113019;28;19908;-72
2021/04/24 02:17:09;;;;;;;;;;;2.60;97.60;;;;;;5111963;28;20360;-72
2021/04/24 02:19:41;;;;;;;;;;;2.60;97.70;;;;;;5112944;28;19918;-72
2021/04/24 02:22:06;;;;;;;;;;;2.50;97.90;;;;;;5112677;28;20372;-73
2021/04/24 02:24:43;;;;;;;;;;;2.50;98.10;;;;;;5112910;28;19919;-72
2021/04/24 02:27:10;;;;;;;;;;;2.40;98.30;;;;;;5111317;28;19930;-72
2021/04/24 02:29:35;;;;;;;;;;;2.40;98.60;;;;;;5111410;28;20395;-72
2021/04/24 02:32:02;;;;;;;;;;;2.30;99.10;;;;;;5112807;28;19943;-72
2021/04/24 02:34:28;;;;;;;;;;;2.30;98.90;;;;;;5112513;28;19907;-72
2021/04/24 02:36:53;;;;;;;;;;;2.30;99.00;;;;;;5090286;28;20000;-72
2021/04/24 02:39:27;;;;;;;;;;;2.30;99.10;;;;;;5091858;28;19916;-72
2021/04/24 02:41:52;;;;;;;;;;;2.30;99.30;;;;;;5091687;28;19958;-71
2021/04/24 02:44:18;;;;;;;;;;;2.20;99.50;;;;;;5091792;28;19912;-72
2021/04/24 02:46:43;;;;;;;;;;;2.20;99.70;;;;;;5090686;28;19940;-72
2021/04/24 02:49:09;;;;;;;;;;;2.20;99.80;;;;;;5091636;28;19938;-72
2021/04/24 02:51:34;;;;;;;;;;;2.20;99.80;;;;;;5091909;28;19951;-72
2021/04/24 02:54:00;;;;;;;;;;;2.10;99.90;;;;;;5092129;28;20347;-72
2021/04/24 02:56:25;;;;;;;;;;;2.10;99.90;;;;;;5090656;28;19908;-73
2021/04/24 02:58:51;;;;;;;;;;;2.10;99.90;;;;;;5089333;28;19916;-71
2021/04/24 03:01:16;;;;;;;;;;;2.00;99.90;;;;;;5070349;28;19984;-72
2021/04/24 03:03:41;;;;;;;;;;;2.00;99.90;;;;;;5070530;28;19978;-72
2021/04/24 03:06:07;;;;;;;;;;;1.90;99.90;;;;;;5077315;28;19908;-71
2021/04/24 03:08:32;;;;;;;;;;;1.90;99.90;;;;;;5091179;28;20406;-72
2021/04/24 03:10:58;;;;;;;;;;;1.90;99.90;;;;;;5091550;28;19915;-72
2021/04/24 03:13:23;;;;;;;;;;;1.90;99.90;;;;;;5090998;28;19912;-72
2021/04/24 03:15:49;;;;;;;;;;;1.80;99.90;;;;;;5090455;28;20324;-72
2021/04/24 03:18:14;;;;;;;;;;;1.80;99.90;;;;;;5090986;28;19912;-72
2021/04/24 03:20:40;;;;;;;;;;;1.80;99.90;;;;;;5091156;28;19915;-73
2021/04/24 03:23:06;;;;;;;;;;;1.70;99.90;;;;;;5090057;28;20007;-72
2021/04/24 03:25:32;;;;;;;;;;;1.60;99.90;;;;;;5090912;28;19908;-73
2021/04/24 03:27:57;;;;;;;;;;;1.60;99.90;;;;;;5090343;28;19935;-72
2021/04/24 03:30:23;;;;;;;;;;;1.60;99.90;;;;;;5091164;28;20425;-72
2021/04/24 03:32:48;;;;;;;;;;;1.60;99.90;;;;;;5090859;28;19961;-73
2021/04/24 03:35:14;;;;;;;;;;;1.60;99.90;;;;;;5087753;28;19954;-73
2021/04/24 03:37:40;;;;;;;;;;;1.60;99.90;;;;;;5088266;28;20393;-73
2021/04/24 03:40:06;;;;;;;;;;;1.60;99.90;;;;;;5071420;28;19967;-73
2021/04/24 03:42:31;;;;;;;;;;;1.60;99.90;;;;;;5069851;28;19913;-71
2021/04/24 03:44:56;;;;;;;;;;;1.50;99.90;;;;;;5070156;28;19923;-74
2021/04/24 03:47:22;;;;;;;;;;;1.40;99.90;;;;;;5068901;28;19908;-72
2021/04/24 03:49:47;;;;;;;;;;;1.40;99.90;;;;;;5070599;28;19915;-72
2021/04/24 03:52:13;;;;;;;;;;;1.30;99.90;;;;;;5068472;28;19909;-72
2021/04/24 03:54:38;;;;;;;;;;;1.30;99.90;;;;;;5067733;28;19908;-73
2021/04/24 03:57:04;;;;;;;;;;;1.30;99.90;;;;;;5067958;28;20375;-72
2021/04/24 03:59:29;;;;;;;;;;;1.20;99.90;;;;;;5069986;28;19964;-72
2021/04/24 04:01:55;;;;;;;;;;;1.20;99.90;;;;;;5069908;28;19913;-72
2021/04/24 04:04:20;;;;;;;;;;;1.30;99.90;;;;;;5069957;28;19916;-72
2021/04/24 04:06:46;;;;;;;;;;;1.30;99.90;;;;;;5081736;28;19912;-72
2021/04/24 04:09:11;;;;;;;;;;;1.30;99.90;;;;;;5088559;28;19909;-71
2021/04/24 04:11:37;;;;;;;;;;;1.40;99.90;;;;;;5090457;28;19915;-72
2021/04/24 04:14:02;;;;;;;;;;;1.40;99.90;;;;;;5089387;28;19909;-71
2021/04/24 04:16:28;;;;;;;;;;;1.40;99.90;;;;;;5093071;28;19912;-72
2021/04/24 04:18:53;;;;;;;;;;;1.40;99.90;;;;;;5094781;28;19965;-72
2021/04/24 04:21:19;;;;;;;;;;;1.40;99.90;;;;;;5094985;28;19970;-71
2021/04/24 04:23:44;;;;;;;;;;;1.30;99.90;;;;;;5094723;28;19962;-72
2021/04/24 04:26:10;;;;;;;;;;;1.30;99.90;;;;;;5093636;28;19919;-72
2021/04/24 04:28:35;;;;;;;;;;;1.30;99.90;;;;;;5094849;28;20299;-71
2021/04/24 04:31:01;;;;;;;;;;;1.30;99.90;;;;;;5094576;28;20273;-72
2021/04/24 04:33:26;;;;;;;;;;;1.30;99.90;;;;;;5094508;28;19962;-72
2021/04/24 04:35:52;;;;;;;;;;;1.30;99.90;;;;;;5093378;28;19916;-72
2021/04/24 04:38:18;;;;;;;;;;;1.20;99.90;;;;;;5092974;28;19920;-72
2021/04/24 04:40:44;;;;;;;;;;;1.20;99.90;;;;;;5094474;28;19953;-73
2021/04/24 04:43:10;;;;;;;;;;;1.20;99.90;;;;;;5092873;28;19912;-71
2021/04/24 04:45:36;;;;;;;;;;;1.30;99.90;;;;;;5093712;28;19915;-71
2021/04/24 04:48:01;;;;;;;;;;;1.40;99.90;;;;;;5093740;28;19915;-71
2021/04/24 04:50:28;;;;;;;;;;;1.30;99.90;;;;;;5094182;28;19964;-71
2021/04/24 04:52:55;;;;;;;;;;;1.40;99.90;;;;;;5094122;28;20362;-71
2021/04/24 04:55:20;;;;;;;;;;;1.30;99.90;;;;;;5094040;28;20003;-72
2021/04/24 04:57:45;;;;;;;;;;;1.30;99.90;;;;;;5092760;28;19993;-71
2021/04/24 05:00:12;;;;;;;;;;;1.40;99.90;;;;;;5093798;28;19935;-72
2021/04/24 05:02:38;;;;;;;;;;;1.40;99.90;;;;;;5094117;28;19908;-71
2021/04/24 05:05:05;;;;;;;;;;;1.50;99.90;;;;;;5094254;28;20067;-72
2021/04/24 05:07:30;;;;;;;;;;;1.50;99.90;;;;;;5091957;28;19915;-73
2021/04/24 05:09:56;;;;;;;;;;;1.50;99.90;;;;;;5093772;28;20359;-71
2021/04/24 05:12:21;;;;;;;;;;;1.60;99.90;;;;;;5093508;28;19974;-72
2021/04/24 05:14:46;;;;;;;;;;;1.60;99.90;;;;;;5093838;28;19912;-72
2021/04/24 05:17:12;;;;;;;;;;;1.70;99.90;;;;;;5092774;28;20320;-71
2021/04/24 05:19:37;;;;;;;;;;;1.80;99.90;;;;;;5093480;28;19955;-72
2021/04/24 05:22:03;;;;;;;;;;;1.80;99.90;;;;;;5093742;28;19931;-72
2021/04/24 05:24:29;;;;;;;;;;;1.90;99.90;;;;;;5092191;28;20272;-72
2021/04/24 05:26:54;;;;;;;;;;;2.00;99.90;;;;;;5091771;28;19952;-71
2021/04/24 05:29:20;;;;;;;;;;;2.00;99.90;;;;;;5093358;28;19961;-72
2021/04/24 05:31:45;;;;;;;;;;;2.10;99.90;;;;;;5093554;28;19909;-72
2021/04/24 05:34:11;;;;;;;;;;;2.10;99.90;;;;;;5093347;28;19915;-72
2021/04/24 05:36:36;;;;;;;;;;;2.20;99.90;;;;;;5092056;28;20338;-72
2021/04/24 05:39:03;;;;;;;;;;;2.30;99.90;;;;;;5092092;28;19919;-72
2021/04/24 05:41:29;;;;;;;;;;;2.40;99.90;;;;;;5093143;28;19916;-72
2021/04/24 05:43:56;;;;;;;;;;;2.60;99.90;;;;;;5092998;28;19919;-72
2021/04/24 05:46:22;;;;;;;;;;;2.60;99.90;;;;;;5092219;28;20449;-73
2021/04/24 05:48:48;;;;;;;;;;;2.70;99.90;;;;;;5092938;28;19908;-72
2021/04/24 05:51:15;;;;;;;;;;;2.80;99.90;;;;;;5093392;28;19991;-73
2021/04/24 05:53:41;;;;;;;;;;;2.90;99.90;;;;;;5092996;28;20369;-72
2021/04/24 05:56:07;;;;;;;;;;;3.00;99.90;;;;;;5092053;28;19912;-72
2021/04/24 05:58:33;;;;;;;;;;;3.00;99.90;;;;;;5092331;28;19913;-72
2021/04/24 06:00:59;;;;;;;;;;;3.20;99.90;;;;;;5092927;28;19908;-72
2021/04/24 06:03:24;;;;;;;;;;;3.30;99.90;;;;;;5091353;28;20003;-72
2021/04/24 06:05:50;;;;;;;;;;;3.40;99.90;;;;;;5091790;28;19912;-73
2021/04/24 06:08:15;;;;;;;;;;;3.50;99.90;;;;;;5091667;28;19916;-72
2021/04/24 06:10:41;;;;;;;;;;;3.70;99.90;;;;;;5092547;28;19961;-72
2021/04/24 06:13:06;;;;;;;;;;;3.80;99.90;;;;;;5092221;28;20037;-72
2021/04/24 06:15:32;;;;;;;;;;;3.90;99.90;;;;;;5092398;28;20218;-73
2021/04/24 06:17:57;;;;;;;;;;;4.00;99.90;;;;;;5091763;28;19947;-72
2021/04/24 06:20:23;;;;;;;;;;;4.20;99.90;;;;;;5092457;28;19915;-72
2021/04/24 06:22:48;;;;;;;;;;;4.30;99.90;;;;;;5092227;28;19912;-72
2021/04/24 06:25:15;;;;;;;;;;;4.50;99.90;;;;;;5091613;28;20433;-73
2021/04/24 06:27:41;;;;;;;;;;;4.60;99.90;;;;;;5074766;28;20373;-72
2021/04/24 06:30:07;;;;;;;;;;;4.90;99.90;;;;;;5071309;28;19920;-73
2021/04/24 06:32:33;;;;;;;;;;;5.10;99.90;;;;;;5071100;28;19916;-72
2021/04/24 06:34:59;;;;;;;;;;;5.40;99.90;;;;;;5069742;28;19912;-73
2021/04/24 06:37:24;;;;;;;;;;;5.60;99.90;;;;;;5071553;28;19927;-73
2021/04/24 06:39:50;;;;;;;;;;;5.80;99.90;;;;;;5079341;28;19962;-72
2021/04/24 06:42:16;;;;;;;;;;;6.00;99.90;;;;;;5070503;28;19954;-73
2021/04/24 06:44:43;;;;;;;;;;;6.20;99.90;;;;;;5071328;28;19909;-72
2021/04/24 06:47:08;;;;;;;;;;;6.40;99.90;;;;;;5070504;28;19909;-73
2021/04/24 06:49:34;;;;;;;;;;;6.50;99.90;;;;;;5071198;28;20198;-73
2021/04/24 06:51:59;;;;;;;;;;;6.70;99.40;;;;;;5071850;28;19943;-72
2021/04/24 06:54:25;;;;;;;;;;;6.90;98.80;;;;;;5071575;28;19912;-74
2021/04/24 06:56:50;;;;;;;;;;;7.10;98.10;;;;;;5070341;28;19908;-72
2021/04/24 06:59:16;;;;;;;;;;;7.30;97.70;;;;;;5071045;28;19920;-73
2021/04/24 07:01:41;;;;;;;;;;;7.50;97.70;;;;;;5071429;28;19915;-72
2021/04/24 07:04:07;;;;;;;;;;;7.60;97.20;;;;;;5071397;28;19942;-72
2021/04/24 07:06:32;;;;;;;;;;;7.80;97.00;;;;;;5070314;28;19908;-73
2021/04/24 07:08:58;;;;;;;;;;;8.10;96.80;;;;;;5085329;28;20376;-72
2021/04/24 07:11:23;;;;;;;;;;;8.30;96.80;;;;;;5091083;28;19933;-73
2021/04/24 07:13:49;;;;;;;;;;;8.60;97.00;;;;;;5089918;28;20266;-73
2021/04/24 07:16:14;;;;;;;;;;;9.30;96.60;;;;;;5088739;28;19959;-73
2021/04/24 07:18:40;;;;;;;;;;;10.40;95.40;;;;;;5088595;28;19916;-72
2021/04/24 07:21:06;;;;;;;;;;;11.70;93.10;;;;;;5088610;28;20444;-72
2021/04/24 07:23:33;;;;;;;;;;;12.80;91.60;;;;;;5088267;28;20084;-72
2021/04/24 07:25:59;;;;;;;;;;;13.90;88.00;;;;;;5087413;28;19912;-72
2021/04/24 07:28:24;;;;;;;;;;;14.70;81.20;;;;;;5086813;28;19908;-72
2021/04/24 07:30:50;;;;;;;;;;;15.50;78.20;;;;;;5090099;28;19953;-72
2021/04/24 07:33:15;;;;;;;;;;;16.20;73.50;;;;;;5091085;28;20365;-72
2021/04/24 07:35:41;;;;;;;;;;;16.90;70.80;;;;;;5088809;28;20254;-71
2021/04/24 07:38:06;;;;;;;;;;;17.50;67.00;;;;;;5088782;28;19927;-72
2021/04/24 07:40:32;;;;;;;;;;;17.90;61.80;;;;;;5090879;28;19948;-73
2021/04/24 07:42:57;;;;;;;;;;;18.20;62.40;;;;;;5090791;28;19912;-72
2021/04/24 07:45:23;;;;;;;;;;;18.40;63.30;;;;;;5090888;28;19908;-72
2021/04/24 07:47:48;;;;;;;;;;;18.60;60.00;;;;;;5089857;28;19912;-71
2021/04/24 07:50:17;;;;;;;;;;;18.90;61.50;;;;;;5090937;28;19960;-73
2021/04/24 07:52:43;;;;;;;;;;;19.20;59.10;;;;;;5091074;28;20369;-72
2021/04/24 07:55:08;;;;;;;;;;;19.40;59.00;;;;;;5090941;28;19923;-72
2021/04/24 07:57:34;;;;;;;;;;;19.70;58.60;;;;;;5089668;28;19905;-71
2021/04/24 07:59:59;;;;;;;;;;;19.80;58.30;;;;;;5090892;28;19923;-71
2021/04/24 08:02:25;;;;;;;;;;;20.10;55.60;;;;;;5091076;28;20270;-71
2021/04/24 08:04:50;;;;;;;;;;;20.30;54.20;;;;;;5091049;28;19908;-73
2021/04/24 08:07:16;;;;;;;;;;;20.50;55.90;;;;;;5088890;28;19908;-72
2021/04/24 08:09:42;;;;;;;;;;;20.60;53.40;;;;;;5090796;28;19934;-72
2021/04/24 08:12:08;;;;;;;;;;;20.70;54.10;;;;;;5090829;28;20347;-72
2021/04/24 08:14:33;;;;;;;;;;;20.90;54.10;;;;;;5089142;28;19999;-72
2021/04/24 08:16:59;;;;;;;;;;;21.00;53.50;;;;;;5088570;28;20246;-73
2021/04/24 08:19:25;;;;;;;;;;;21.20;53.30;;;;;;5090832;28;19935;-72
2021/04/24 08:21:53;;;;;;;;;;;21.50;53.60;;;;;;5090836;28;19911;-74
2021/04/24 08:24:18;;;;;;;;;;;21.80;52.40;;;;;;5090625;28;19908;-71
2021/04/24 08:26:44;;;;;;;;;;;21.90;51.80;;;;;;5089826;28;19915;-72
2021/04/24 08:29:09;;;;;;;;;;;22.10;55.70;;;;;;5090422;28;19915;-72
2021/04/24 08:31:35;;;;;;;;;;;22.30;48.50;;;;;;5090633;28;19908;-73
2021/04/24 08:34:01;;;;;;;;;;;22.20;51.00;;;;;;5090447;28;19912;-72
2021/04/24 08:36:27;;;;;;;;;;;22.20;49.70;;;;;;5090049;28;19916;-72
2021/04/24 08:38:52;;;;;;;;;;;22.30;53.40;;;;;;5088907;28;19927;-72
2021/04/24 08:41:18;;;;;;;;;;;22.30;50.00;;;;;;5089994;28;19912;-73
2021/04/24 08:43:43;;;;;;;;;;;22.50;48.10;;;;;;5090156;28;19995;-75
2021/04/24 08:46:09;;;;;;;;;;;22.80;50.00;;;;;;5089411;28;20053;-72
2021/04/24 08:48:35;;;;;;;;;;;23.00;50.70;;;;;;5090654;28;19908;-75
2021/04/24 08:51:01;;;;;;;;;;;22.90;49.60;;;;;;5090616;28;19908;-72
2021/04/24 08:53:26;;;;;;;;;;;22.80;45.20;;;;;;5090110;28;19916;-73
2021/04/24 08:55:52;;;;;;;;;;;22.60;47.60;;;;;;5089036;28;19966;-73
2021/04/24 08:58:18;;;;;;;;;;;22.80;50.10;;;;;;5089870;28;19919;-76
2021/04/24 09:00:44;;;;;;;;;;;22.70;46.20;;;;;;5090485;28;19955;-73
2021/04/24 09:03:11;;;;;;;;;;;22.80;45.40;;;;;;5092865;28;19912;-74
2021/04/24 09:05:37;;;;;;;;;;;22.80;48.00;;;;;;5093205;28;20327;-73
2021/04/24 09:08:04;;;;;;;;;;;23.00;49.90;;;;;;5092316;28;19908;-73
2021/04/24 09:10:35;;;;;;;;;;;22.90;44.50;;;;;;5092236;28;19919;-73
2021/04/24 09:13:00;;;;;;;;;;;22.80;46.10;;;;;;5093226;28;19908;-75
2021/04/24 09:15:26;;;;;;;;;;;23.10;47.20;;;;;;5092635;28;19914;-73
2021/04/24 09:17:57;;;;;;;;;;;23.30;46.30;;;;;;5092745;28;19908;-73
2021/04/24 09:20:24;;;;;;;;;;;23.50;46.40;;;;;;5093673;28;19923;-73
2021/04/24 09:22:54;;;;;;;;;;;23.90;46.70;;;;;;5093586;28;20278;-75
2021/04/24 09:25:19;;;;;;;;;;;24.00;45.00;;;;;;5093790;28;19912;-73
2021/04/24 09:27:47;;;;;;;;;;;24.00;48.20;;;;;;5092275;28;19908;-73
2021/04/24 09:30:33;;;;;;;;;;;24.20;45.70;;;;;;5093685;28;19970;-74
2021/04/24 09:33:03;;;;;;;;;;;24.30;43.20;;;;;;5091978;28;20273;-75
2021/04/24 09:35:37;;;;;;;;;;;24.20;39.90;;;;;;5093709;28;19908;-74
2021/04/24 09:38:03;;;;;;;;;;;24.30;42.50;;;;;;5092757;28;20304;-74
2021/04/24 09:40:29;;;;;;;;;;;24.40;43.00;;;;;;5093222;28;19908;-73
2021/04/24 09:43:08;;;;;;;;;;;24.40;42.10;;;;;;5091766;28;19999;-74
2021/04/24 09:45:41;;;;;;;;;;;24.70;44.00;;;;;;5092997;28;19916;-73
2021/04/24 09:48:23;;;;;;;;;;;25.20;43.70;;;;;;5093250;28;19912;-73
2021/04/24 09:50:48;;;;;;;;;;;24.90;38.50;;;;;;5091990;28;19919;-73
2021/04/24 09:53:17;;;;;;;;;;;24.80;43.60;;;;;;5092952;28;20006;-73
2021/04/24 09:55:43;;;;;;;;;;;24.90;42.90;;;;;;5092046;28;19909;-75
2021/04/24 09:58:28;;;;;;;;;;;24.70;38.70;;;;;;5092266;28;20523;-73
2021/04/24 10:00:54;;;;;;;;;;;24.50;41.20;;;;;;5092353;28;20257;-74
2021/04/24 10:03:33;;;;;;;;;;;24.70;43.40;;;;;;5096851;28;19991;-73
2021/04/24 10:06:18;;;;;;;;;;;24.80;41.90;;;;;;5092944;28;19919;-73
2021/04/24 10:08:44;;;;;;;;;;;25.10;39.70;;;;;;5104447;28;19912;-73
2021/04/24 10:11:09;;;;;;;;;;;25.50;40.70;;;;;;5097987;28;19908;-73
2021/04/24 10:13:38;;;;;;;;;;;25.80;42.30;;;;;;5092539;28;20442;-72
2021/04/24 10:16:06;;;;;;;;;;;26.10;41.40;;;;;;5091090;28;20000;-73
2021/04/24 10:18:31;;;;;;;;;;;26.50;38.90;;;;;;5092841;28;19973;-73
2021/04/24 10:20:57;;;;;;;;;;;26.70;38.80;;;;;;5091096;28;20000;-73
2021/04/24 10:23:23;;;;;;;;;;;26.20;41.80;;;;;;5092422;28;19912;-73
2021/04/24 10:25:49;;;;;;;;;;;25.90;42.90;;;;;;5092094;28;19908;-73
2021/04/24 10:28:15;;;;;;;;;;;25.90;41.40;;;;;;5092825;28;19995;-73
2021/04/24 10:30:41;;;;;;;;;;;25.80;39.30;;;;;;5092491;28;19954;-73
2021/04/24 10:33:06;;;;;;;;;;;25.70;39.80;;;;;;5092127;28;19920;-73
2021/04/24 10:35:32;;;;;;;;;;;25.90;40.20;;;;;;5092458;28;19961;-73
2021/04/24 10:38:00;;;;;;;;;;;26.00;41.10;;;;;;5090292;28;20422;-73
2021/04/24 10:40:26;;;;;;;;;;;26.00;38.40;;;;;;5091922;28;19912;-73
2021/04/24 10:42:53;;;;;;;;;;;25.70;38.20;;;;;;5091176;28;20277;-73
2021/04/24 10:45:29;;;;;;;;;;;25.70;38.00;;;;;;5092029;28;19958;-74
2021/04/24 10:47:55;;;;;;;;;;;25.60;36.30;;;;;;5089693;28;19950;-73
2021/04/24 10:50:23;;;;;;;;;;;25.60;37.30;;;;;;5091936;28;19912;-74
2021/04/24 10:52:50;;;;;;;;;;;25.50;38.70;;;;;;5091824;28;19953;-75
2021/04/24 10:55:17;;;;;;;;;;;25.70;41.70;;;;;;5091837;28;20384;-75
2021/04/24 10:57:44;;;;;;;;;;;25.60;37.10;;;;;;5091085;28;19908;-74
2021/04/24 11:00:13;;;;;;;;;;;25.70;37.80;;;;;;5090154;28;19912;-75
2021/04/24 11:03:04;;;;;;;;;;;25.70;37.70;;;;;;5091743;28;19955;-75
2021/04/24 11:05:30;;;;;;;;;;;25.30;36.30;;;;;;5089449;28;19931;-74
2021/04/24 11:08:20;;;;;;;;;;;24.90;35.40;;;;;;5089777;28;19909;-75
2021/04/24 11:10:47;;;;;;;;;;;24.80;38.20;;;;;;5077783;28;20006;-75
2021/04/24 11:13:13;;;;;;;;;;;24.50;37.00;;;;;;5091293;28;19908;-75
2021/04/24 11:15:39;;;;;;;;;;;24.50;40.30;;;;;;5091351;28;19912;-72
2021/04/24 11:18:10;;;;;;;;;;;24.50;37.30;;;;;;5091587;28;19909;-73
2021/04/24 11:20:47;;;;;;;;;;;24.80;40.20;;;;;;5091909;28;19908;-73
2021/04/24 11:23:33;;;;;;;;;;;25.10;38.90;;;;;;5091542;28;20038;-73
2021/04/24 11:26:04;;;;;;;;;;;25.40;37.60;;;;;;5090075;28;20047;-72
2021/04/24 11:28:29;;;;;;;;;;;25.60;38.70;;;;;;5090706;28;19997;-73
2021/04/24 11:30:59;;;;;;;;;;;25.70;38.40;;;;;;5089377;28;19973;-73
2021/04/24 11:33:45;;;;;;;;;;;25.60;37.40;;;;;;5088687;28;19908;-73
2021/04/24 11:36:25;;;;;;;;;;;25.40;38.00;;;;;;5089619;28;19943;-73
2021/04/24 11:38:53;;;;;;;;;;;25.30;35.80;;;;;;5089499;28;20483;-73
2021/04/24 11:41:38;;;;;;;;;;;25.40;37.20;;;;;;5090642;28;19939;-73
2021/04/24 11:44:16;;;;;;;;;;;25.20;34.80;;;;;;5090428;28;19961;-73
2021/04/24 11:46:42;;;;;;;;;;;25.60;38.60;;;;;;5090264;28;19919;-73
2021/04/24 11:49:11;;;;;;;;;;;25.70;35.20;;;;;;5090758;28;20006;-73
2021/04/24 11:51:43;;;;;;;;;;;25.80;34.40;;;;;;5089894;28;20392;-73
2021/04/24 11:54:10;;;;;;;;;;;26.00;36.10;;;;;;5089830;28;20431;-73
2021/04/24 11:56:36;;;;;;;;;;;25.90;37.50;;;;;;5090286;28;19908;-73
2021/04/24 11:59:03;;;;;;;;;;;26.10;34.40;;;;;;5090738;28;19919;-73
2021/04/24 12:01:29;;;;;;;;;;;26.30;34.20;;;;;;5091291;28;19908;-73
2021/04/24 12:03:55;;;;;;;;;;;26.50;35.80;;;;;;5091129;28;19969;-73
2021/04/24 12:06:40;;;;;;;;;;;26.40;35.10;;;;;;5090289;28;19908;-73
2021/04/24 12:09:10;;;;;;;;;;;25.90;33.80;;;;;;5088301;28;19939;-73
2021/04/24 12:11:35;;;;;;;;;;;25.40;35.40;;;;;;5090800;28;19908;-73
2021/04/24 12:14:01;;;;;;;;;;;25.30;35.60;;;;;;5090690;28;19909;-73
2021/04/24 12:16:46;;;;;;;;;;;25.20;35.40;;;;;;5090742;28;19926;-72
2021/04/24 12:19:34;;;;;;;;;;;25.20;35.60;;;;;;5091055;28;19912;-73
2021/04/24 12:22:04;;;;;;;;;;;24.90;35.70;;;;;;5090821;28;19908;-73
2021/04/24 12:24:30;;;;;;;;;;;24.60;36.20;;;;;;5090886;28;19908;-73
2021/04/24 12:26:55;;;;;;;;;;;24.60;37.90;;;;;;5090105;28;19931;-73
2021/04/24 12:29:40;;;;;;;;;;;24.80;39.90;;;;;;5089295;28;19909;-73
2021/04/24 12:32:15;;;;;;;;;;;24.90;38.70;;;;;;5090797;28;19915;-73
2021/04/24 12:34:41;;;;;;;;;;;24.90;36.60;;;;;;5090974;28;19947;-73
2021/04/24 12:37:08;;;;;;;;;;;25.00;37.30;;;;;;5090677;28;19960;-73
2021/04/24 12:39:34;;;;;;;;;;;24.80;36.90;;;;;;5093536;28;19960;-73
2021/04/24 12:42:02;;;;;;;;;;;24.20;37.40;;;;;;5094625;28;19916;-73
2021/04/24 12:44:31;;;;;;;;;;;24.10;37.10;;;;;;5094389;28;19912;-73
2021/04/24 12:46:56;;;;;;;;;;;24.00;35.80;;;;;;5093537;28;19915;-73
2021/04/24 12:49:22;;;;;;;;;;;24.20;37.20;;;;;;5094727;28;19908;-73
2021/04/24 12:52:04;;;;;;;;;;;24.50;39.10;;;;;;5094416;28;20041;-73
2021/04/24 12:54:30;;;;;;;;;;;24.80;38.00;;;;;;5094592;28;19909;-73
2021/04/24 12:57:12;;;;;;;;;;;24.90;37.40;;;;;;5093482;28;19914;-73
2021/04/24 12:59:37;;;;;;;;;;;24.70;37.50;;;;;;5093825;28;20011;-73
2021/04/24 13:02:03;;;;;;;;;;;24.20;37.90;;;;;;5094207;28;19943;-73
2021/04/24 13:04:28;;;;;;;;;;;23.90;38.10;;;;;;5093269;28;20288;-73
2021/04/24 13:06:55;;;;;;;;;;;23.50;37.10;;;;;;5093204;28;19908;-73
2021/04/24 13:09:30;;;;;;;;;;;23.50;38.10;;;;;;5092864;28;19915;-73
2021/04/24 13:11:55;;;;;;;;;;;23.20;38.20;;;;;;5092935;28;19912;-73
2021/04/24 13:14:22;;;;;;;;;;;23.10;38.50;;;;;;5093656;28;19914;-73
2021/04/24 13:16:48;;;;;;;;;;;23.10;37.40;;;;;;5093084;28;19947;-73
2021/04/24 13:19:14;;;;;;;;;;;23.20;38.50;;;;;;5093837;28;19938;-73
2021/04/24 13:21:55;;;;;;;;;;;23.30;39.80;;;;;;5093987;28;19908;-73
2021/04/24 13:24:22;;;;;;;;;;;23.20;38.70;;;;;;5092528;28;20284;-73
2021/04/24 13:26:47;;;;;;;;;;;23.00;38.60;;;;;;5092903;28;19961;-73
2021/04/24 13:29:31;;;;;;;;;;;22.60;39.00;;;;;;5091711;28;19912;-73
2021/04/24 13:32:00;;;;;;;;;;;22.50;39.30;;;;;;5093668;28;19923;-73
2021/04/24 13:34:28;;;;;;;;;;;22.40;39.80;;;;;;5093571;28;19908;-73
2021/04/24 13:37:05;;;;;;;;;;;22.40;40.20;;;;;;5092347;28;20377;-73
2021/04/24 13:39:31;;;;;;;;;;;22.30;39.20;;;;;;5092176;28;19912;-74
2021/04/24 13:42:25;;;;;;;;;;;22.30;39.20;;;;;;5093486;28;19908;-74
2021/04/24 13:44:51;;;;;;;;;;;22.40;40.70;;;;;;5077616;28;20353;-74
2021/04/24 13:47:26;;;;;;;;;;;22.50;39.80;;;;;;5092195;28;19940;-74
2021/04/24 13:49:52;;;;;;;;;;;22.60;40.00;;;;;;5093276;28;19916;-73
2021/04/24 13:52:19;;;;;;;;;;;22.70;39.60;;;;;;5093090;28;19908;-74
2021/04/24 13:54:45;;;;;;;;;;;22.60;38.50;;;;;;5093610;28;20238;-73
2021/04/24 13:57:10;;;;;;;;;;;22.70;39.00;;;;;;5092222;28;19936;-74
2021/04/24 13:59:36;;;;;;;;;;;22.80;39.10;;;;;;5092863;28;19978;-74
2021/04/24 14:02:01;;;;;;;;;;;23.00;39.40;;;;;;5093072;28;19909;-74
2021/04/24 14:04:27;;;;;;;;;;;23.10;38.50;;;;;;5093024;28;20011;-74
2021/04/24 14:06:52;;;;;;;;;;;23.30;39.00;;;;;;5090457;28;19909;-73
2021/04/24 14:09:18;;;;;;;;;;;23.40;38.20;;;;;;5091676;28;19981;-74
2021/04/24 14:11:43;;;;;;;;;;;23.30;38.60;;;;;;5092984;28;19950;-74
2021/04/24 14:14:09;;;;;;;;;;;23.10;39.00;;;;;;5092677;28;19908;-74
2021/04/24 14:16:37;;;;;;;;;;;23.10;38.50;;;;;;5091725;28;19909;-74
2021/04/24 14:19:04;;;;;;;;;;;23.00;38.70;;;;;;5091445;28;20296;-74
2021/04/24 14:21:29;;;;;;;;;;;23.00;40.30;;;;;;5092936;28;20338;-73
2021/04/24 14:23:56;;;;;;;;;;;23.00;38.60;;;;;;5092629;28;19912;-74